Time;durP1;ratioP1;P1;durP2;ratioP2;P2;SDS_P1;SDS_P2;PMS_P1;PMS_P2;Temp;Humidity;BMP_temperature;BMP_pressure;BME280_temperature;BME280_humidity;BME280_pressure;Samples;Min_cycle;Max_cycle;Signal;HPM_P1;HPM_P2
2022/05/30 00:00:45;;;;;;;34.80;25.38;;;435.30;2355.20;;;;;;5093419;28;20055;-86
2022/05/30 00:03:12;;;;;;;42.88;25.98;;;435.30;2355.20;;;;;;5093783;28;20020;-86
2022/05/30 00:05:47;;;;;;;40.03;23.73;;;435.30;2355.20;;;;;;5093654;28;20032;-86
2022/05/30 00:08:14;;;;;;;38.67;22.67;;;435.40;2355.20;;;;;;5092986;28;20408;-86
2022/05/30 00:10:40;;;;;;;41.00;24.75;;;435.30;2355.20;;;;;;5093596;28;20027;-87
2022/05/30 00:13:06;;;;;;;36.10;23.35;;;435.40;2355.20;;;;;;5093547;28;20028;-86
2022/05/30 00:15:32;;;;;;;39.85;22.17;;;435.40;2355.20;;;;;;5093192;28;20020;-87
2022/05/30 00:17:58;;;;;;;44.65;24.63;;;435.40;2355.20;;;;;;5093561;28;20024;-87
2022/05/30 00:20:25;;;;;;;44.85;23.40;;;435.40;2355.20;;;;;;5093575;28;20073;-87
2022/05/30 00:22:52;;;;;;;39.80;22.65;;;435.20;2355.20;;;;;;5093376;28;20028;-87
2022/05/30 00:25:18;;;;;;;44.03;21.85;;;435.50;2355.20;;;;;;5093631;28;20028;-86
2022/05/30 00:27:45;;;;;;;45.15;21.85;;;435.50;2355.20;;;;;;5093498;28;20081;-86
2022/05/30 00:30:13;;;;;;;33.75;21.50;;;435.50;2355.20;;;;;;5093345;28;20043;-87
2022/05/30 00:32:39;;;;;;;34.45;22.08;;;435.40;2355.20;;;;;;5093488;28;20432;-86
2022/05/30 00:35:06;;;;;;;33.97;20.85;;;435.50;2355.20;;;;;;5093217;28;20025;-86
2022/05/30 00:37:32;;;;;;;37.30;20.55;;;435.50;2355.20;;;;;;5093036;28;20035;-86
2022/05/30 00:39:58;;;;;;;32.40;20.35;;;435.50;2355.20;;;;;;5093257;28;20028;-86
2022/05/30 00:42:26;;;;;;;30.80;18.38;;;435.50;2355.20;;;;;;5096764;28;20032;-86
2022/05/30 00:44:53;;;;;;;36.58;21.88;;;435.90;2355.20;;;;;;5097229;28;20032;-86
2022/05/30 00:47:20;;;;;;;41.13;19.92;;;435.60;2355.20;;;;;;5097146;28;20024;-85
2022/05/30 00:49:48;;;;;;;35.97;21.05;;;435.50;2355.20;;;;;;5096921;28;20123;-86
2022/05/30 00:52:19;;;;;;;36.85;21.58;;;435.50;2355.20;;;;;;5097204;28;20115;-85
2022/05/30 00:55:14;;;;;;;38.03;22.48;;;435.30;2355.20;;;;;;5097164;28;20032;-85
2022/05/30 00:57:41;;;;;;;32.53;20.95;;;435.30;2355.20;;;;;;5094468;28;20032;-85
2022/05/30 01:00:12;;;;;;;40.38;21.95;;;435.40;2355.20;;;;;;5096967;28;20079;-85
2022/05/30 01:02:41;;;;;;;36.78;20.55;;;435.30;2355.20;;;;;;5097067;28;20024;-85
2022/05/30 01:07:54;;;;;;;39.25;22.33;;;435.50;2355.20;;;;;;5122201;28;20062;-86
2022/05/30 01:10:22;;;;;;;36.58;21.55;;;435.50;2355.20;;;;;;5121723;28;20061;-85
2022/05/30 01:12:52;;;;;;;34.25;20.38;;;435.50;2355.20;;;;;;5119024;28;20019;-86
2022/05/30 01:15:25;;;;;;;34.13;20.75;;;435.50;2355.20;;;;;;5099759;28;20047;-86
2022/05/30 01:18:20;;;;;;;33.47;20.58;;;435.60;2355.20;;;;;;5099507;28;20016;-85
2022/05/30 01:21:04;;;;;;;40.58;21.75;;;435.60;2355.20;;;;;;5097414;28;20059;-85
2022/05/30 01:23:59;;;;;;;44.38;21.05;;;435.30;2355.20;;;;;;5102794;28;20035;-86
2022/05/30 01:26:47;;;;;;;40.30;22.33;;;435.20;2355.20;;;;;;5102343;28;20471;-86
2022/05/30 01:29:24;;;;;;;39.85;22.38;;;410.40;2355.20;;;;;;5097826;28;20043;-86
2022/05/30 01:31:50;;;;;;;35.40;21.05;;;410.30;2355.20;;;;;;5096658;28;20032;-86
2022/05/30 01:34:22;;;;;;;40.45;22.90;;;410.30;2355.20;;;;;;5096390;28;20460;-86
2022/05/30 01:36:48;;;;;;;41.55;23.40;;;435.20;2355.20;;;;;;5096595;28;20035;-86
2022/05/30 01:39:14;;;;;;;41.08;23.75;;;435.20;2355.20;;;;;;5096121;28;20126;-85
2022/05/30 01:41:39;;;;;;;49.95;24.38;;;410.40;2355.20;;;;;;5097429;28;20447;-85
2022/05/30 01:44:05;;;;;;;43.97;23.15;;;410.40;2355.20;;;;;;5095892;28;20429;-86
2022/05/30 01:46:31;;;;;;;40.13;24.42;;;410.30;2355.20;;;;;;5096045;28;20024;-86
2022/05/30 01:48:57;;;;;;;42.05;23.80;;;410.20;2355.20;;;;;;5096106;28;20143;-85
2022/05/30 01:51:23;;;;;;;44.53;23.92;;;410.30;2355.20;;;;;;5095961;28;20032;-86
2022/05/30 01:53:50;;;;;;;33.33;21.27;;;410.40;2252.80;;;;;;5095013;28;20365;-86
2022/05/30 01:56:16;;;;;;;38.10;22.45;;;410.50;2355.20;;;;;;5095840;28;20032;-86
2022/05/30 01:58:42;;;;;;;40.47;22.75;;;410.50;2355.20;;;;;;5095832;28;20081;-85
2022/05/30 02:01:22;;;;;;;42.20;23.52;;;435.20;2355.20;;;;;;5095613;28;20383;-86
2022/05/30 02:03:50;;;;;;;34.95;21.27;;;410.50;2355.20;;;;;;5095808;28;20027;-86
2022/05/30 02:06:16;;;;;;;36.78;22.33;;;435.30;2355.20;;;;;;5096698;28;20021;-86
2022/05/30 02:08:42;;;;;;;37.80;21.35;;;435.40;2355.20;;;;;;5095559;28;20054;-85
2022/05/30 02:11:10;;;;;;;34.88;21.17;;;435.50;2355.20;;;;;;5095800;28;20047;-86
2022/05/30 02:13:37;;;;;;;31.75;20.48;;;435.40;2355.20;;;;;;5095622;28;20040;-85
2022/05/30 02:18:50;;;;;;;32.85;21.35;;;435.50;2355.20;;;;;;5096628;28;20054;-86
2022/05/30 02:21:16;;;;;;;45.72;23.55;;;435.20;2355.20;;;;;;5095297;28;20028;-86
2022/05/30 02:23:42;;;;;;;35.95;21.63;;;410.50;2355.20;;;;;;5095537;28;20131;-85
2022/05/30 02:26:08;;;;;;;38.67;22.75;;;410.50;2355.20;;;;;;5095538;28;20091;-86
2022/05/30 02:28:34;;;;;;;38.15;22.40;;;410.40;2355.20;;;;;;5095075;28;20126;-86
2022/05/30 02:31:00;;;;;;;33.80;21.65;;;410.30;2355.20;;;;;;5095385;28;20077;-86
2022/05/30 02:38:54;;;;;;;33.20;24.80;;;435.30;2355.20;;;;;;5096202;28;20078;-86
2022/05/30 02:41:19;;;;;;;33.65;24.33;;;435.30;2355.20;;;;;;5095119;28;20028;-86
2022/05/30 02:43:46;;;;;;;32.08;23.05;;;435.30;2355.20;;;;;;5094909;28;20093;-85
2022/05/30 02:46:12;;;;;;;37.55;24.42;;;435.30;2355.20;;;;;;5095126;28;20024;-86
2022/05/30 02:48:38;;;;;;;40.35;27.58;;;410.30;2355.20;;;;;;5094662;28;20040;-85
2022/05/30 02:51:04;;;;;;;44.65;27.27;;;435.50;2355.20;;;;;;5094887;28;20028;-85
2022/05/30 02:53:30;;;;;;;41.97;26.65;;;435.30;2355.20;;;;;;5094923;28;20020;-85
2022/05/30 02:55:56;;;;;;;39.17;27.30;;;410.50;2355.20;;;;;;5094810;28;20024;-86
2022/05/30 02:58:22;;;;;;;41.35;26.85;;;410.30;2355.20;;;;;;5096004;28;20050;-86
2022/05/30 03:00:48;;;;;;;32.80;24.48;;;410.50;2355.20;;;;;;5094770;28;20460;-86
2022/05/30 03:03:14;;;;;;;35.72;24.20;;;435.20;2355.20;;;;;;5094529;28;20051;-86
2022/05/30 03:05:39;;;;;;;34.60;25.13;;;410.40;2355.20;;;;;;5094800;28;20050;-86
2022/05/30 03:08:06;;;;;;;31.45;23.50;;;410.30;2355.20;;;;;;5094104;28;20048;-86
2022/05/30 03:10:32;;;;;;;33.28;22.65;;;410.50;2355.20;;;;;;5094424;28;20077;-86
2022/05/30 03:12:58;;;;;;;35.45;23.33;;;435.20;2355.20;;;;;;5094473;28;20028;-86
2022/05/30 03:15:25;;;;;;;35.42;22.55;;;410.50;2355.20;;;;;;5094476;28;20024;-86
2022/05/30 03:17:51;;;;;;;28.55;21.40;;;435.20;2355.20;;;;;;5094239;28;20030;-85
2022/05/30 03:20:20;;;;;;;26.13;20.05;;;435.30;2355.20;;;;;;5094422;28;20064;-86
2022/05/30 03:22:47;;;;;;;24.92;18.10;;;435.30;2355.20;;;;;;5095408;28;20370;-85
2022/05/30 03:25:14;;;;;;;22.33;16.85;;;435.50;2355.20;;;;;;5094300;28;20035;-85
2022/05/30 03:27:39;;;;;;;25.15;17.23;;;435.50;2355.20;;;;;;5094018;28;20020;-85
2022/05/30 03:30:06;;;;;;;23.52;17.08;;;435.60;2355.20;;;;;;5094265;28;20073;-85
2022/05/30 03:32:32;;;;;;;18.80;14.75;;;435.60;2355.20;;;;;;5093938;28;20055;-85
2022/05/30 03:34:59;;;;;;;20.83;16.05;;;435.60;2355.20;;;;;;5094316;28;20028;-86
2022/05/30 03:37:25;;;;;;;19.70;14.88;;;435.50;2355.20;;;;;;5094088;28;20069;-85
2022/05/30 03:39:51;;;;;;;25.80;15.25;;;435.50;2355.20;;;;;;5093999;28;20063;-86
2022/05/30 03:42:17;;;;;;;22.90;15.52;;;435.50;2355.20;;;;;;5094010;28;20056;-85
2022/05/30 03:44:43;;;;;;;21.90;15.57;;;435.50;2355.20;;;;;;5093877;28;20028;-86
2022/05/30 03:47:10;;;;;;;22.35;17.25;;;435.40;2355.20;;;;;;5094248;28;20051;-86
2022/05/30 03:49:36;;;;;;;27.85;18.80;;;435.40;2355.20;;;;;;5094039;28;20029;-86
2022/05/30 03:52:02;;;;;;;24.60;19.23;;;435.20;2355.20;;;;;;5093906;28;20123;-86
2022/05/30 03:54:28;;;;;;;28.10;20.25;;;435.50;2355.20;;;;;;5093844;28;20028;-86
2022/05/30 03:56:54;;;;;;;25.50;19.17;;;435.40;2227.20;;;;;;5093635;28;20035;-85
2022/05/30 03:59:19;;;;;;;26.60;17.98;;;435.40;2355.20;;;;;;5093500;28;20039;-85
2022/05/30 04:01:45;;;;;;;29.45;19.88;;;435.60;2355.20;;;;;;5093584;28;20052;-85
2022/05/30 04:04:14;;;;;;;24.17;18.25;;;435.40;2355.20;;;;;;5093747;28;20048;-85
2022/05/30 04:06:41;;;;;;;23.92;19.35;;;435.40;2355.20;;;;;;5093444;28;20478;-86
2022/05/30 04:09:08;;;;;;;24.77;18.33;;;435.50;2355.20;;;;;;5093364;28;20035;-83
2022/05/30 04:11:35;;;;;;;29.08;18.92;;;435.60;2355.20;;;;;;5091771;28;20480;-84
2022/05/30 04:14:01;;;;;;;27.60;19.08;;;435.50;2252.80;;;;;;5094231;28;20099;-83
2022/05/30 04:16:27;;;;;;;25.02;18.35;;;435.50;2355.20;;;;;;5092649;28;20123;-83
2022/05/30 04:18:53;;;;;;;24.58;17.63;;;435.60;2355.20;;;;;;5093188;28;20032;-83
2022/05/30 04:21:19;;;;;;;28.67;18.27;;;435.60;2355.20;;;;;;5092909;28;20030;-84
2022/05/30 04:23:46;;;;;;;26.00;19.08;;;435.60;2355.20;;;;;;5092898;28;20020;-84
2022/05/30 04:26:14;;;;;;;25.92;20.23;;;435.60;2355.20;;;;;;5093190;28;20482;-83
2022/05/30 04:28:39;;;;;;;24.95;18.45;;;435.60;2355.20;;;;;;5092582;28;20100;-84
2022/05/30 04:31:12;;;;;;;25.88;18.77;;;435.70;2355.20;;;;;;5092406;28;20467;-83
2022/05/30 04:33:40;;;;;;;30.77;18.48;;;435.60;2355.20;;;;;;5092674;28;20054;-83
2022/05/30 04:36:15;;;;;;;26.42;19.38;;;435.40;2355.20;;;;;;5092808;28;20379;-84
2022/05/30 04:38:41;;;;;;;27.17;19.77;;;435.30;2355.20;;;;;;5092836;28;20028;-84
2022/05/30 04:41:08;;;;;;;29.48;19.63;;;435.30;2073.60;;;;;;5092433;28;20024;-84
2022/05/30 04:43:34;;;;;;;32.88;20.98;;;410.50;2355.20;;;;;;5093137;28;20388;-84
2022/05/30 04:46:15;;;;;;;29.38;20.33;;;410.50;2355.20;;;;;;5092804;28;20024;-85
2022/05/30 04:48:42;;;;;;;33.25;19.85;;;435.20;2355.20;;;;;;5092403;28;20031;-83
2022/05/30 04:51:08;;;;;;;31.80;21.65;;;435.20;2355.20;;;;;;5092671;28;20031;-83
2022/05/30 04:53:34;;;;;;;38.28;22.05;;;435.30;2355.20;;;;;;5092629;28;20028;-83
2022/05/30 04:56:00;;;;;;;38.22;23.15;;;435.30;2355.20;;;;;;5092372;28;20024;-83
2022/05/30 04:58:28;;;;;;;35.47;22.48;;;435.40;2355.20;;;;;;5092600;28;20044;-83
2022/05/30 05:00:58;;;;;;;36.58;22.27;;;435.40;2176.00;;;;;;5092464;28;20024;-84
2022/05/30 05:03:24;;;;;;;35.25;23.58;;;435.50;2355.20;;;;;;5092292;28;20051;-83
2022/05/30 05:05:50;;;;;;;36.70;24.23;;;435.60;2355.20;;;;;;5092531;28;20123;-83
2022/05/30 05:08:16;;;;;;;36.95;23.92;;;435.50;2355.20;;;;;;5092080;28;20123;-84
2022/05/30 05:10:57;;;;;;;37.78;25.38;;;435.60;2355.20;;;;;;5092387;28;20028;-83
2022/05/30 05:13:22;;;;;;;41.88;24.67;;;435.60;2355.20;;;;;;5092668;28;20063;-83
2022/05/30 05:15:48;;;;;;;39.63;26.92;;;435.60;2355.20;;;;;;5092112;28;20044;-83
2022/05/30 05:18:14;;;;;;;39.33;26.70;;;435.60;2252.80;;;;;;5092683;28;20475;-83
2022/05/30 05:20:44;;;;;;;33.38;22.98;;;435.70;2355.20;;;;;;5092495;28;20024;-82
2022/05/30 05:23:11;;;;;;;34.35;24.35;;;435.80;2355.20;;;;;;5093528;28;20483;-83
2022/05/30 05:25:40;;;;;;;35.40;23.73;;;435.90;2355.20;;;;;;5092528;28;20418;-83
2022/05/30 05:28:07;;;;;;;33.05;23.63;;;435.80;2355.20;;;;;;5093802;28;20032;-84
2022/05/30 05:30:34;;;;;;;34.38;24.20;;;435.90;2355.20;;;;;;5095664;28;20024;-83
2022/05/30 05:33:00;;;;;;;31.92;21.98;;;435.90;2355.20;;;;;;5096019;28;20486;-83
2022/05/30 05:35:26;;;;;;;32.65;22.52;;;436.00;2355.20;;;;;;5095846;28;20031;-84
2022/05/30 05:37:52;;;;;;;32.78;23.15;;;436.10;2355.20;;;;;;5096537;28;20024;-83
2022/05/30 05:40:18;;;;;;;33.55;23.60;;;436.10;2355.20;;;;;;5096039;28;20024;-83
2022/05/30 05:42:44;;;;;;;37.17;25.02;;;436.10;2355.20;;;;;;5095681;28;20060;-84
2022/05/30 05:45:10;;;;;;;33.17;24.75;;;435.80;2355.20;;;;;;5095468;28;20160;-83
2022/05/30 05:47:36;;;;;;;33.45;24.88;;;435.90;2355.20;;;;;;5095431;28;20024;-84
2022/05/30 05:50:03;;;;;;;33.85;24.02;;;435.90;2355.20;;;;;;5095579;28;20047;-84
2022/05/30 05:52:29;;;;;;;33.78;23.60;;;460.90;2380.80;;;;;;5095253;28;20028;-83
2022/05/30 05:54:55;;;;;;;32.45;24.13;;;436.00;2355.20;;;;;;5095510;28;20031;-83
2022/05/30 05:57:22;;;;;;;39.97;25.88;;;436.10;2355.20;;;;;;5095562;28;20024;-83
2022/05/30 05:59:48;;;;;;;33.22;23.20;;;436.10;2355.20;;;;;;5095117;28;20089;-83
2022/05/30 06:02:13;;;;;;;33.22;23.70;;;460.80;2380.80;;;;;;5095420;28;20032;-83
2022/05/30 06:04:40;;;;;;;35.10;23.50;;;460.90;2380.80;;;;;;5095134;28;20035;-83
2022/05/30 06:07:06;;;;;;;30.02;23.27;;;460.90;2380.80;;;;;;5095363;28;20510;-84
2022/05/30 06:09:32;;;;;;;33.65;23.67;;;461.00;2048.00;;;;;;5095401;28;20081;-84
2022/05/30 06:11:59;;;;;;;35.45;22.58;;;461.00;2227.20;;;;;;5095079;28;20142;-84
2022/05/30 06:14:25;;;;;;;35.80;23.33;;;460.90;2176.00;;;;;;5094931;28;20027;-82
2022/05/30 06:16:51;;;;;;;31.75;23.77;;;460.90;2380.80;;;;;;5094901;28;20387;-83
2022/05/30 06:19:17;;;;;;;29.15;21.65;;;461.10;2380.80;;;;;;5096065;28;20020;-84
2022/05/30 06:21:43;;;;;;;26.77;21.27;;;461.10;2380.80;;;;;;5096885;28;20031;-87
2022/05/30 06:24:10;;;;;;;33.65;21.30;;;461.20;2380.80;;;;;;5095631;28;20111;-85
2022/05/30 06:26:36;;;;;;;26.55;20.15;;;461.40;2380.80;;;;;;5095241;28;20020;-87
2022/05/30 06:29:02;;;;;;;25.30;19.98;;;461.30;2380.80;;;;;;5095103;28;20028;-85
2022/05/30 06:31:30;;;;;;;30.48;20.33;;;461.20;2380.80;;;;;;5095272;28;20028;-86
2022/05/30 06:33:58;;;;;;;25.80;19.60;;;435.90;2355.20;;;;;;5095949;28;20052;-84
2022/05/30 06:36:25;;;;;;;24.60;19.40;;;461.30;2380.80;;;;;;5096188;28;20078;-85
2022/05/30 06:38:52;;;;;;;26.90;21.05;;;461.30;2380.80;;;;;;5096127;28;20506;-85
2022/05/30 06:41:24;;;;;;;26.88;20.02;;;461.30;2380.80;;;;;;5094877;28;20066;-85
2022/05/30 06:43:55;;;;;;;26.40;20.48;;;461.50;2380.80;;;;;;5095802;28;20020;-84
2022/05/30 06:46:22;;;;;;;26.38;18.98;;;461.50;2380.80;;;;;;5094872;28;20024;-85
2022/05/30 06:48:48;;;;;;;26.13;20.13;;;461.50;2380.80;;;;;;5094240;28;20036;-84
2022/05/30 06:51:18;;;;;;;28.80;20.58;;;461.10;2380.80;;;;;;5094749;28;20032;-84
2022/05/30 06:53:43;;;;;;;24.95;20.48;;;461.20;2380.80;;;;;;5095640;28;20028;-85
2022/05/30 06:56:22;;;;;;;26.00;20.13;;;461.40;2380.80;;;;;;5094262;28;20034;-85
2022/05/30 06:58:53;;;;;;;28.75;20.35;;;461.50;2380.80;;;;;;5094190;28;20024;-86
2022/05/30 07:01:21;;;;;;;24.73;19.17;;;461.30;2380.80;;;;;;5093372;28;20035;-86
2022/05/30 07:03:47;;;;;;;25.60;18.42;;;461.50;2380.80;;;;;;5088767;28;20032;-85
2022/05/30 07:06:20;;;;;;;23.67;20.33;;;461.70;2380.80;;;;;;5093914;28;20363;-84
2022/05/30 07:08:46;;;;;;;28.00;19.98;;;461.70;2380.80;;;;;;5090725;28;20044;-85
2022/05/30 07:11:18;;;;;;;24.58;19.42;;;486.40;2380.80;;;;;;5093664;28;20024;-85
2022/05/30 07:13:44;;;;;;;24.77;19.20;;;486.40;2380.80;;;;;;5088416;28;20028;-85
2022/05/30 07:16:10;;;;;;;29.02;20.63;;;486.50;2380.80;;;;;;5093315;28;20016;-84
2022/05/30 07:18:37;;;;;;;21.65;17.80;;;486.40;2380.80;;;;;;5093866;28;20028;-84
2022/05/30 07:21:07;;;;;;;22.33;16.52;;;486.40;2380.80;;;;;;5093444;28;20023;-81
2022/05/30 07:23:35;;;;;;;20.58;16.80;;;486.60;2380.80;;;;;;5093212;28;20139;-80
2022/05/30 07:26:05;;;;;;;22.02;16.42;;;486.70;2380.80;;;;;;5093184;28;20035;-81
2022/05/30 07:28:30;;;;;;;21.35;15.63;;;486.50;2380.80;;;;;;5094689;28;20040;-81
2022/05/30 07:31:05;;;;;;;23.00;18.55;;;486.40;2380.80;;;;;;5092571;28;20520;-81
2022/05/30 07:33:32;;;;;;;19.90;16.33;;;486.40;2380.80;;;;;;5090879;28;20464;-80
2022/05/30 07:35:58;;;;;;;22.05;17.33;;;486.50;2380.80;;;;;;5106859;28;20467;-79
2022/05/30 07:38:24;;;;;;;19.15;15.98;;;486.40;2380.80;;;;;;5093958;28;20028;-78
2022/05/30 07:40:49;;;;;;;20.45;17.65;;;486.60;2380.80;;;;;;5093017;28;20016;-78
2022/05/30 07:43:15;;;;;;;18.70;16.58;;;486.80;2380.80;;;;;;5092501;28;20020;-78
2022/05/30 07:45:41;;;;;;;19.65;16.33;;;486.80;2380.80;;;;;;5093237;28;20024;-79
2022/05/30 07:48:08;;;;;;;19.45;15.45;;;486.90;2380.80;;;;;;5094529;28;20031;-77
2022/05/30 07:50:35;;;;;;;18.77;14.45;;;487.00;2380.80;;;;;;5092150;28;20109;-79
2022/05/30 07:53:01;;;;;;;19.42;15.45;;;487.10;2380.80;;;;;;5092958;28;20032;-79
2022/05/30 07:55:29;;;;;;;17.63;15.18;;;486.80;2380.80;;;;;;5093019;28;20453;-80
2022/05/30 07:57:58;;;;;;;20.15;16.73;;;486.80;2380.80;;;;;;5092997;28;20379;-80
2022/05/30 08:00:29;;;;;;;20.60;15.30;;;486.90;2380.80;;;;;;5092596;28;20498;-80
2022/05/30 08:02:55;;;;;;;22.50;15.27;;;486.80;2380.80;;;;;;5092925;28;20375;-79
2022/05/30 08:05:21;;;;;;;17.48;14.80;;;486.90;2380.80;;;;;;5092519;28;20035;-80
2022/05/30 08:07:47;;;;;;;18.92;15.23;;;487.10;2380.80;;;;;;5092351;28;20136;-79
2022/05/30 08:10:17;;;;;;;19.33;14.43;;;487.30;2380.80;;;;;;5092468;28;20127;-78
2022/05/30 08:12:43;;;;;;;21.95;15.65;;;512.10;2380.80;;;;;;5092676;28;20020;-78
2022/05/30 08:15:10;;;;;;;17.63;13.23;;;512.30;2380.80;;;;;;5093738;28;20517;-79
2022/05/30 08:17:36;;;;;;;17.15;12.73;;;512.30;2380.80;;;;;;5094012;28;20051;-79
2022/05/30 08:20:04;;;;;;;19.45;13.57;;;512.40;2380.80;;;;;;5092629;28;20036;-78
2022/05/30 08:22:34;;;;;;;15.25;12.80;;;512.70;2380.80;;;;;;5092577;28;20085;-81
2022/05/30 08:25:03;;;;;;;19.35;14.25;;;512.70;2380.80;;;;;;5092557;28;20020;-80
2022/05/30 08:27:30;;;;;;;13.60;11.45;;;512.80;2380.80;;;;;;5092620;28;20059;-80
2022/05/30 08:29:56;;;;;;;16.55;10.20;;;512.80;2380.80;;;;;;5092251;28;20389;-80
2022/05/30 08:32:23;;;;;;;15.52;11.88;;;512.50;2380.80;;;;;;5093788;28;20073;-80
2022/05/30 08:34:49;;;;;;;16.83;11.90;;;512.50;2380.80;;;;;;5092500;28;20024;-80
2022/05/30 08:37:14;;;;;;;16.58;11.45;;;512.60;2380.80;;;;;;5093099;28;20387;-80
2022/05/30 08:42:28;;;;;;;14.93;11.73;;;512.70;2380.80;;;;;;5091935;28;20074;-79
2022/05/30 08:44:55;;;;;;;16.10;11.90;;;512.90;2380.80;;;;;;5091907;28;20047;-80
2022/05/30 08:47:30;;;;;;;13.05;11.13;;;538.00;2406.40;;;;;;5091987;28;20094;-80
2022/05/30 08:50:08;;;;;;;14.45;12.23;;;512.90;2380.80;;;;;;5092010;28;20085;-80
2022/05/30 08:53:11;;;;;;;15.10;10.77;;;537.80;2406.40;;;;;;5082736;28;20032;-79
2022/05/30 08:55:42;;;;;;;14.02;10.10;;;538.00;2406.40;;;;;;5072102;28;20031;-79
2022/05/30 08:58:29;;;;;;;14.40;10.97;;;538.20;2406.40;;;;;;5071882;28;20523;-79
2022/05/30 09:01:07;;;;;;;15.25;11.05;;;538.30;2406.40;;;;;;5072084;28;20070;-79
2022/05/30 09:03:39;;;;;;;15.57;11.38;;;563.20;2432.00;;;;;;5075491;28;20090;-79
2022/05/30 09:06:22;;;;;;;14.63;10.85;;;563.60;2432.00;;;;;;5076760;28;20074;-78
2022/05/30 09:09:14;;;;;;;12.18;9.60;;;563.50;2432.00;;;;;;5075616;28;20489;-78
2022/05/30 09:11:51;;;;;;;14.70;10.93;;;563.80;2432.00;;;;;;5075377;28;20085;-78
2022/05/30 09:14:27;;;;;;;14.98;10.52;;;563.80;2432.00;;;;;;5076679;28;20107;-79
2022/05/30 09:16:58;;;;;;;15.60;9.82;;;563.80;2432.00;;;;;;5075708;28;20111;-79
2022/05/30 09:19:25;;;;;;;14.82;11.52;;;563.80;2432.00;;;;;;5076842;28;20040;-79
2022/05/30 09:21:54;;;;;;;15.48;10.48;;;589.00;2432.00;;;;;;5075543;28;20028;-79
2022/05/30 09:24:20;;;;;;;13.68;10.35;;;589.10;2432.00;;;;;;5076501;28;20020;-77
2022/05/30 09:26:46;;;;;;;12.07;9.35;;;589.20;2432.00;;;;;;5076726;28;20027;-77
2022/05/30 09:29:21;;;;;;;14.38;9.20;;;589.00;2432.00;;;;;;5075501;28;20029;-78
2022/05/30 09:32:04;;;;;;;16.08;9.55;;;564.10;2432.00;;;;;;5100021;28;20005;-78
2022/05/30 09:34:46;;;;;;;12.13;9.20;;;589.20;2432.00;;;;;;5101631;28;20008;-77
2022/05/30 09:37:27;;;;;;;14.27;10.07;;;589.60;2432.00;;;;;;5098581;28;20008;-77
2022/05/30 09:39:53;;;;;;;14.07;10.13;;;614.50;2432.00;;;;;;5075614;28;20127;-77
2022/05/30 09:42:29;;;;;;;16.05;9.52;;;614.40;2432.00;;;;;;5075591;28;20024;-77
2022/05/30 09:44:59;;;;;;;9.90;8.90;;;614.50;2432.00;;;;;;5075557;28;20028;-78
2022/05/30 09:47:25;;;;;;;14.88;9.15;;;614.80;2432.00;;;;;;5075381;28;20055;-79
2022/05/30 09:49:54;;;;;;;14.73;8.85;;;615.10;2432.00;;;;;;5075018;28;20090;-79
2022/05/30 09:52:27;;;;;;;10.82;8.85;;;640.00;2432.00;;;;;;5075011;28;20048;-79
2022/05/30 09:54:54;;;;;;;10.65;9.35;;;640.20;2432.00;;;;;;5074889;28;20028;-78
2022/05/30 09:57:41;;;;;;;13.90;9.85;;;640.40;2432.00;;;;;;5074984;28;20059;-78
2022/05/30 10:00:16;;;;;;;10.07;8.35;;;640.60;2432.00;;;;;;5074461;28;20472;-77
2022/05/30 10:02:45;;;;;;;11.88;8.68;;;640.90;2432.00;;;;;;5076127;28;20075;-78
2022/05/30 10:05:14;;;;;;;13.43;8.20;;;665.70;2432.00;;;;;;5074686;28;20032;-77
2022/05/30 10:07:52;;;;;;;15.27;10.25;;;665.70;2432.00;;;;;;5091069;28;20049;-77
2022/05/30 10:10:36;;;;;;;11.73;8.05;;;665.60;2432.00;;;;;;5074619;28;20032;-79
2022/05/30 10:13:05;;;;;;;9.93;7.82;;;665.70;2432.00;;;;;;5074328;28;20027;-79
2022/05/30 10:15:35;;;;;;;10.20;7.88;;;665.70;2432.00;;;;;;5075615;28;20074;-79
2022/05/30 10:18:13;;;;;;;12.27;8.10;;;665.60;2432.00;;;;;;5075896;28;20020;-79
2022/05/30 10:20:48;;;;;;;12.43;8.70;;;665.70;2432.00;;;;;;5090965;28;20032;-79
2022/05/30 10:29:58;;;;;;;11.02;7.70;;;691.30;2432.00;;;;;;5074994;28;20043;-79
2022/05/30 10:32:32;;;;;;;9.85;7.85;;;691.20;2432.00;;;;;;5091174;28;20039;-78
2022/05/30 10:35:20;;;;;;;12.10;7.80;;;691.20;2432.00;;;;;;5073982;28;20031;-78
2022/05/30 10:38:24;;;;;;;10.73;7.78;;;666.20;2432.00;;;;;;5074090;28;20035;-80
2022/05/30 10:41:11;;;;;;;12.20;7.55;;;691.30;2432.00;;;;;;5079720;28;20123;-79
2022/05/30 10:43:46;;;;;;;12.30;7.20;;;691.70;2432.00;;;;;;5073963;28;20082;-79
2022/05/30 10:46:34;;;;;;;11.88;8.02;;;692.00;2432.00;;;;;;5090958;28;20052;-80
2022/05/30 10:49:08;;;;;;;10.98;6.82;;;692.00;2432.00;;;;;;5074898;28;20044;-80
2022/05/30 10:51:48;;;;;;;12.77;7.05;;;717.00;2432.00;;;;;;5073982;28;20031;-79
2022/05/30 10:54:20;;;;;;;12.52;9.55;;;692.10;2355.20;;;;;;5090419;28;20031;-80
2022/05/30 10:56:50;;;;;;;11.02;9.18;;;717.10;2432.00;;;;;;5080416;28;20028;-79
2022/05/30 10:59:44;;;;;;;9.23;7.20;;;717.30;2432.00;;;;;;5094006;28;20066;-80
2022/05/30 11:02:55;;;;;;;11.95;7.10;;;717.30;2355.20;;;;;;5093687;28;20078;-79
2022/05/30 11:05:54;;;;;;;11.70;6.57;;;717.70;2329.60;;;;;;5093864;28;20427;-80
2022/05/30 11:08:47;;;;;;;10.60;7.10;;;742.40;2304.00;;;;;;5077335;28;20044;-80
2022/05/30 11:11:35;;;;;;;9.88;6.70;;;742.40;2227.20;;;;;;5093645;28;20032;-80
2022/05/30 11:14:10;;;;;;;11.40;6.22;;;742.60;2252.80;;;;;;5095135;28;20016;-80
2022/05/30 11:16:36;;;;;;;10.10;6.15;;;742.80;2201.60;;;;;;5094346;28;20376;-80
2022/05/30 11:19:23;;;;;;;9.85;6.07;;;742.90;2227.20;;;;;;5093536;28;20039;-79
2022/05/30 11:22:31;;;;;;;12.10;6.32;;;743.00;2176.00;;;;;;5093801;28;20483;-79
2022/05/30 11:24:56;;;;;;;10.40;6.00;;;743.10;2176.00;;;;;;5092439;28;20056;-79
2022/05/30 11:27:39;;;;;;;11.88;8.30;;;743.20;2099.20;;;;;;5092975;28;20051;-80
2022/05/30 11:30:30;;;;;;;9.38;5.95;;;743.30;2099.20;;;;;;5094647;28;20031;-80
2022/05/30 11:33:05;;;;;;;10.88;5.53;;;768.00;2073.60;;;;;;5093452;28;20089;-78
2022/05/30 11:35:33;;;;;;;11.98;5.50;;;743.30;2073.60;;;;;;5093261;28;20077;-79
2022/05/30 11:38:18;;;;;;;9.15;5.32;;;743.20;2048.00;;;;;;5093253;28;20540;-79
2022/05/30 11:40:56;;;;;;;9.13;4.70;;;768.10;2022.40;;;;;;5093234;28;20089;-78
2022/05/30 11:43:33;;;;;;;8.73;4.70;;;768.20;2048.00;;;;;;5094114;28;20099;-76
2022/05/30 11:46:28;;;;;;;7.65;4.80;;;768.60;1971.20;;;;;;5092758;28;20081;-79
2022/05/30 11:48:59;;;;;;;9.48;5.32;;;768.60;1971.20;;;;;;5083381;28;20046;-79
2022/05/30 11:51:32;;;;;;;11.63;5.45;;;768.30;1945.60;;;;;;5092820;28;20020;-80
2022/05/30 11:54:30;;;;;;;14.32;9.43;;;768.50;1996.80;;;;;;5093014;28;20063;-78
2022/05/30 11:57:20;;;;;;;14.55;7.30;;;768.80;1971.20;;;;;;5092898;28;20055;-79
2022/05/30 11:59:59;;;;;;;8.95;4.68;;;793.60;1945.60;;;;;;5092553;28;20071;-80
2022/05/30 12:02:53;;;;;;;12.48;7.70;;;793.80;1945.60;;;;;;5092824;28;20028;-80
2022/05/30 12:05:43;;;;;;;9.90;6.25;;;768.80;1843.20;;;;;;5092574;28;20448;-80
2022/05/30 12:08:25;;;;;;;9.45;4.85;;;768.50;1868.80;;;;;;5093497;28;20392;-77
2022/05/30 12:11:10;;;;;;;6.95;4.80;;;768.70;1843.20;;;;;;5092733;28;20118;-76
2022/05/30 12:13:53;;;;;;;12.07;4.60;;;793.60;1894.40;;;;;;5093621;28;20024;-77
2022/05/30 12:16:37;;;;;;;14.85;6.43;;;793.70;1920.00;;;;;;5092571;28;20032;-76
2022/05/30 12:24:56;;;;;;;9.45;4.40;;;794.20;1843.20;;;;;;5093842;28;20073;-77
2022/05/30 12:27:28;;;;;;;9.48;3.88;;;794.20;1817.60;;;;;;5092388;28;20032;-77
2022/05/30 12:29:54;;;;;;;;;;;794.20;1766.40;;;;;;5092187;28;20062;-76
2022/05/30 12:32:29;;;;;;;11.98;7.00;;;794.40;1817.60;;;;;;5093224;28;20339;-77
2022/05/30 12:34:58;;;;;;;11.30;6.03;;;794.30;1817.60;;;;;;5091865;28;20086;-77
2022/05/30 12:37:44;;;;;;;13.65;6.55;;;794.30;1817.60;;;;;;5095739;28;20036;-77
2022/05/30 12:40:36;;;;;;;16.00;5.65;;;794.30;1792.00;;;;;;5096190;28;20028;-77
2022/05/30 12:43:08;;;;;;;11.93;5.97;;;794.20;1817.60;;;;;;5096569;28;20055;-78
2022/05/30 12:45:40;;;;;;;11.35;5.00;;;794.30;1792.00;;;;;;5095930;28;20024;-77